sensor_id;sensor_type;location;lat;lon;timestamp;pressure;altitude;pressure_sealevel;temperature;humidity
62124;BME280;48110;47.532;19.078;2024-01-16T00:02:11;99168.03;;;0.64;100.00
62124;BME280;48110;47.532;19.078;2024-01-16T00:05:15;99177.25;;;0.68;100.00
62124;BME280;48110;47.532;19.078;2024-01-16T00:08:17;99180.69;;;0.68;100.00
62124;BME280;48110;47.532;19.078;2024-01-16T00:11:20;99177.09;;;0.60;100.00
62124;BME280;48110;47.532;19.078;2024-01-16T00:14:23;99183.84;;;0.62;100.00
62124;BME280;48110;47.532;19.078;2024-01-16T00:17:26;99183.69;;;0.64;100.00
62124;BME280;48110;47.532;19.078;2024-01-16T00:20:29;99191.53;;;0.64;100.00
62124;BME280;48110;47.532;19.078;2024-01-16T00:23:32;99180.13;;;0.55;100.00
62124;BME280;48110;47.532;19.078;2024-01-16T00:26:35;99193.72;;;0.59;100.00
62124;BME280;48110;47.532;19.078;2024-01-16T00:29:38;99203.03;;;0.52;100.00
62124;BME280;48110;47.532;19.078;2024-01-16T00:32:41;99199.50;;;0.62;100.00
62124;BME280;48110;47.532;19.078;2024-01-16T00:35:44;99205.81;;;0.69;100.00
62124;BME280;48110;47.532;19.078;2024-01-16T00:38:48;99218.97;;;0.58;100.00
62124;BME280;48110;47.532;19.078;2024-01-16T00:41:51;99222.13;;;0.52;100.00
62124;BME280;48110;47.532;19.078;2024-01-16T00:44:54;99227.25;;;0.73;100.00
62124;BME280;48110;47.532;19.078;2024-01-16T00:47:57;99224.66;;;0.82;100.00
62124;BME280;48110;47.532;19.078;2024-01-16T00:51:00;99239.13;;;0.86;100.00
62124;BME280;48110;47.532;19.078;2024-01-16T00:54:03;99239.97;;;0.97;100.00
62124;BME280;48110;47.532;19.078;2024-01-16T00:57:05;99254.00;;;1.05;100.00
62124;BME280;48110;47.532;19.078;2024-01-16T01:00:09;99252.50;;;1.12;100.00
62124;BME280;48110;47.532;19.078;2024-01-16T01:03:14;99254.56;;;1.28;100.00
62124;BME280;48110;47.532;19.078;2024-01-16T01:06:17;99263.53;;;1.25;100.00
62124;BME280;48110;47.532;19.078;2024-01-16T01:09:20;99259.38;;;1.13;100.00
62124;BME280;48110;47.532;19.078;2024-01-16T01:12:23;99280.66;;;0.99;100.00
62124;BME280;48110;47.532;19.078;2024-01-16T01:15:26;99289.19;;;1.01;100.00
62124;BME280;48110;47.532;19.078;2024-01-16T01:18:29;99277.34;;;1.07;100.00
62124;BME280;48110;47.532;19.078;2024-01-16T01:21:32;99277.53;;;1.15;100.00
62124;BME280;48110;47.532;19.078;2024-01-16T01:24:35;99279.84;;;1.18;100.00
62124;BME280;48110;47.532;19.078;2024-01-16T01:27:38;99293.31;;;1.04;100.00
62124;BME280;48110;47.532;19.078;2024-01-16T01:30:41;99302.69;;;1.06;100.00
62124;BME280;48110;47.532;19.078;2024-01-16T01:33:44;99291.41;;;1.06;100.00
62124;BME280;48110;47.532;19.078;2024-01-16T01:36:47;99285.47;;;1.04;100.00
62124;BME280;48110;47.532;19.078;2024-01-16T01:39:50;99297.78;;;0.92;100.00
62124;BME280;48110;47.532;19.078;2024-01-16T01:42:53;99303.59;;;0.96;100.00
62124;BME280;48110;47.532;19.078;2024-01-16T01:49:17;99310.34;;;1.08;100.00
62124;BME280;48110;47.532;19.078;2024-01-16T01:52:20;99309.81;;;1.04;100.00
62124;BME280;48110;47.532;19.078;2024-01-16T01:55:23;99307.47;;;1.01;100.00
62124;BME280;48110;47.532;19.078;2024-01-16T01:58:25;99311.44;;;0.96;100.00
62124;BME280;48110;47.532;19.078;2024-01-16T02:01:29;99310.72;;;0.94;100.00
62124;BME280;48110;47.532;19.078;2024-01-16T02:04:34;99314.87;;;0.96;100.00
62124;BME280;48110;47.532;19.078;2024-01-16T02:07:38;99326.69;;;0.91;100.00
62124;BME280;48110;47.532;19.078;2024-01-16T02:10:43;99325.56;;;0.93;100.00
62124;BME280;48110;47.532;19.078;2024-01-16T02:13:48;99326.38;;;0.84;100.00
62124;BME280;48110;47.532;19.078;2024-01-16T02:16:51;99335.16;;;0.83;100.00
62124;BME280;48110;47.532;19.078;2024-01-16T02:19:54;99344.59;;;0.74;100.00
62124;BME280;48110;47.532;19.078;2024-01-16T02:23:00;99346.69;;;0.80;100.00
62124;BME280;48110;47.532;19.078;2024-01-16T02:26:06;99347.75;;;0.78;100.00
62124;BME280;48110;47.532;19.078;2024-01-16T02:29:08;99360.53;;;0.71;100.00
62124;BME280;48110;47.532;19.078;2024-01-16T02:32:12;99367.41;;;0.72;100.00
62124;BME280;48110;47.532;19.078;2024-01-16T02:35:16;99377.06;;;0.81;100.00
62124;BME280;48110;47.532;19.078;2024-01-16T02:38:19;99378.16;;;0.79;100.00
62124;BME280;48110;47.532;19.078;2024-01-16T02:41:22;99378.09;;;0.69;100.00
62124;BME280;48110;47.532;19.078;2024-01-16T02:44:25;99373.66;;;0.60;100.00
62124;BME280;48110;47.532;19.078;2024-01-16T02:47:29;99386.59;;;0.62;100.00
62124;BME280;48110;47.532;19.078;2024-01-16T02:50:32;99388.84;;;0.76;100.00
62124;BME280;48110;47.532;19.078;2024-01-16T02:53:35;99391.34;;;0.77;100.00
62124;BME280;48110;47.532;19.078;2024-01-16T02:56:38;99394.09;;;0.55;100.00
62124;BME280;48110;47.532;19.078;2024-01-16T02:59:43;99392.03;;;0.59;100.00
62124;BME280;48110;47.532;19.078;2024-01-16T03:02:46;99388.47;;;0.60;100.00
62124;BME280;48110;47.532;19.078;2024-01-16T03:05:49;99390.16;;;0.61;100.00
62124;BME280;48110;47.532;19.078;2024-01-16T03:08:52;99393.47;;;0.63;100.00
62124;BME280;48110;47.532;19.078;2024-01-16T03:11:55;99396.59;;;0.57;100.00
62124;BME280;48110;47.532;19.078;2024-01-16T03:14:58;99388.31;;;0.52;100.00
62124;BME280;48110;47.532;19.078;2024-01-16T03:18:01;99392.19;;;0.57;100.00
62124;BME280;48110;47.532;19.078;2024-01-16T03:21:07;99400.84;;;0.58;100.00
62124;BME280;48110;47.532;19.078;2024-01-16T03:24:11;99406.13;;;0.67;100.00
62124;BME280;48110;47.532;19.078;2024-01-16T03:27:13;99410.19;;;0.60;100.00
62124;BME280;48110;47.532;19.078;2024-01-16T03:30:16;99407.13;;;0.55;100.00
62124;BME280;48110;47.532;19.078;2024-01-16T03:33:20;99413.56;;;0.51;100.00
62124;BME280;48110;47.532;19.078;2024-01-16T03:36:23;99405.41;;;0.65;100.00
62124;BME280;48110;47.532;19.078;2024-01-16T03:39:27;99410.91;;;0.62;100.00
62124;BME280;48110;47.532;19.078;2024-01-16T03:42:30;99405.03;;;0.70;100.00
62124;BME280;48110;47.532;19.078;2024-01-16T03:45:32;99417.00;;;0.72;100.00
62124;BME280;48110;47.532;19.078;2024-01-16T03:48:35;99419.34;;;0.75;100.00
62124;BME280;48110;47.532;19.078;2024-01-16T03:51:41;99432.00;;;0.80;100.00
62124;BME280;48110;47.532;19.078;2024-01-16T03:54:49;99444.63;;;0.75;100.00
62124;BME280;48110;47.532;19.078;2024-01-16T03:57:52;99442.41;;;0.70;100.00
62124;BME280;48110;47.532;19.078;2024-01-16T04:00:54;99445.00;;;0.70;100.00
62124;BME280;48110;47.532;19.078;2024-01-16T04:03:57;99445.47;;;0.75;100.00
62124;BME280;48110;47.532;19.078;2024-01-16T04:07:00;99446.06;;;0.68;100.00
62124;BME280;48110;47.532;19.078;2024-01-16T04:10:03;99449.84;;;0.75;100.00
62124;BME280;48110;47.532;19.078;2024-01-16T04:13:07;99445.19;;;0.78;100.00
62124;BME280;48110;47.532;19.078;2024-01-16T04:16:12;99460.63;;;0.81;100.00
62124;BME280;48110;47.532;19.078;2024-01-16T04:19:15;99459.84;;;0.70;100.00
62124;BME280;48110;47.532;19.078;2024-01-16T04:22:18;99458.50;;;0.75;100.00
62124;BME280;48110;47.532;19.078;2024-01-16T04:25:20;99465.78;;;0.72;100.00
62124;BME280;48110;47.532;19.078;2024-01-16T04:28:23;99463.62;;;0.77;100.00
62124;BME280;48110;47.532;19.078;2024-01-16T04:31:26;99474.87;;;0.77;100.00
62124;BME280;48110;47.532;19.078;2024-01-16T04:34:29;99470.84;;;0.73;100.00
62124;BME280;48110;47.532;19.078;2024-01-16T04:37:32;99487.78;;;0.79;100.00
62124;BME280;48110;47.532;19.078;2024-01-16T04:40:35;99481.06;;;0.76;100.00
62124;BME280;48110;47.532;19.078;2024-01-16T04:43:38;99483.28;;;0.81;100.00
62124;BME280;48110;47.532;19.078;2024-01-16T04:46:41;99499.19;;;0.78;100.00
62124;BME280;48110;47.532;19.078;2024-01-16T04:49:43;99500.59;;;0.61;100.00
62124;BME280;48110;47.532;19.078;2024-01-16T04:52:46;99507.31;;;0.64;100.00
62124;BME280;48110;47.532;19.078;2024-01-16T04:55:50;99507.09;;;0.67;100.00
62124;BME280;48110;47.532;19.078;2024-01-16T04:58:53;99505.87;;;0.71;100.00
62124;BME280;48110;47.532;19.078;2024-01-16T05:01:56;99512.87;;;0.70;100.00
62124;BME280;48110;47.532;19.078;2024-01-16T05:04:59;99519.00;;;0.80;100.00
62124;BME280;48110;47.532;19.078;2024-01-16T05:08:02;99515.38;;;0.72;100.00
62124;BME280;48110;47.532;19.078;2024-01-16T05:11:07;99521.66;;;0.69;100.00
62124;BME280;48110;47.532;19.078;2024-01-16T05:14:10;99529.78;;;0.55;100.00
62124;BME280;48110;47.532;19.078;2024-01-16T05:17:12;99536.87;;;0.64;100.00
62124;BME280;48110;47.532;19.078;2024-01-16T05:20:15;99544.13;;;0.61;100.00
62124;BME280;48110;47.532;19.078;2024-01-16T05:23:18;99551.00;;;0.62;100.00
62124;BME280;48110;47.532;19.078;2024-01-16T05:26:21;99549.31;;;0.72;100.00
62124;BME280;48110;47.532;19.078;2024-01-16T05:29:25;99554.31;;;0.64;100.00
62124;BME280;48110;47.532;19.078;2024-01-16T05:32:27;99566.16;;;0.68;100.00
62124;BME280;48110;47.532;19.078;2024-01-16T05:35:30;99573.66;;;0.61;100.00
62124;BME280;48110;47.532;19.078;2024-01-16T05:38:33;99570.56;;;0.67;100.00
62124;BME280;48110;47.532;19.078;2024-01-16T05:41:37;99588.31;;;0.73;100.00
62124;BME280;48110;47.532;19.078;2024-01-16T05:44:40;99589.87;;;0.76;100.00
62124;BME280;48110;47.532;19.078;2024-01-16T05:47:43;99602.34;;;0.72;100.00
62124;BME280;48110;47.532;19.078;2024-01-16T05:50:47;99598.31;;;0.68;100.00
62124;BME280;48110;47.532;19.078;2024-01-16T05:53:50;99599.03;;;0.70;100.00
62124;BME280;48110;47.532;19.078;2024-01-16T05:56:52;99611.81;;;0.73;100.00
62124;BME280;48110;47.532;19.078;2024-01-16T05:59:55;99601.88;;;0.67;100.00
62124;BME280;48110;47.532;19.078;2024-01-16T06:02:58;99602.00;;;0.66;100.00
62124;BME280;48110;47.532;19.078;2024-01-16T06:06:01;99601.53;;;0.61;100.00
62124;BME280;48110;47.532;19.078;2024-01-16T06:09:04;99616.25;;;0.62;100.00
62124;BME280;48110;47.532;19.078;2024-01-16T06:12:08;99616.84;;;0.54;100.00
62124;BME280;48110;47.532;19.078;2024-01-16T06:15:11;99622.78;;;0.56;100.00
62124;BME280;48110;47.532;19.078;2024-01-16T06:18:14;99634.53;;;0.51;100.00
62124;BME280;48110;47.532;19.078;2024-01-16T06:21:17;99635.84;;;0.45;100.00
62124;BME280;48110;47.532;19.078;2024-01-16T06:24:23;99640.03;;;0.48;100.00
62124;BME280;48110;47.532;19.078;2024-01-16T06:27:25;99633.03;;;0.37;100.00
62124;BME280;48110;47.532;19.078;2024-01-16T06:30:28;99643.37;;;0.38;100.00
62124;BME280;48110;47.532;19.078;2024-01-16T06:33:31;99653.66;;;0.40;100.00
62124;BME280;48110;47.532;19.078;2024-01-16T06:36:34;99648.22;;;0.43;100.00
62124;BME280;48110;47.532;19.078;2024-01-16T06:39:37;99647.75;;;0.38;100.00
62124;BME280;48110;47.532;19.078;2024-01-16T06:42:40;99664.72;;;0.43;100.00
62124;BME280;48110;47.532;19.078;2024-01-16T06:45:43;99669.19;;;0.41;99.92
62124;BME280;48110;47.532;19.078;2024-01-16T06:48:46;99679.88;;;0.38;100.00
62124;BME280;48110;47.532;19.078;2024-01-16T06:51:51;99682.38;;;0.29;100.00
62124;BME280;48110;47.532;19.078;2024-01-16T06:54:54;99686.06;;;0.26;100.00
62124;BME280;48110;47.532;19.078;2024-01-16T06:57:56;99713.06;;;0.25;100.00
62124;BME280;48110;47.532;19.078;2024-01-16T07:00:59;99695.44;;;0.29;100.00
62124;BME280;48110;47.532;19.078;2024-01-16T07:04:03;99710.94;;;0.30;100.00
62124;BME280;48110;47.532;19.078;2024-01-16T07:07:06;99713.91;;;0.26;100.00
62124;BME280;48110;47.532;19.078;2024-01-16T07:10:08;99713.09;;;0.36;99.62
62124;BME280;48110;47.532;19.078;2024-01-16T07:13:16;99731.47;;;0.35;99.38
62124;BME280;48110;47.532;19.078;2024-01-16T07:16:18;99725.53;;;0.44;98.40
62124;BME280;48110;47.532;19.078;2024-01-16T07:19:21;99734.06;;;0.46;97.53
62124;BME280;48110;47.532;19.078;2024-01-16T07:22:24;99725.28;;;0.58;95.50
62124;BME280;48110;47.532;19.078;2024-01-16T07:25:27;99735.00;;;0.67;93.53
62124;BME280;48110;47.532;19.078;2024-01-16T07:28:30;99737.72;;;0.77;92.30
62124;BME280;48110;47.532;19.078;2024-01-16T07:31:33;99752.88;;;0.83;91.03
62124;BME280;48110;47.532;19.078;2024-01-16T07:34:36;99756.78;;;0.88;90.16
62124;BME280;48110;47.532;19.078;2024-01-16T07:37:39;99764.97;;;0.95;89.57
62124;BME280;48110;47.532;19.078;2024-01-16T07:40:42;99773.28;;;1.11;87.67
62124;BME280;48110;47.532;19.078;2024-01-16T07:43:44;99765.00;;;1.27;85.50
62124;BME280;48110;47.532;19.078;2024-01-16T07:46:51;99769.84;;;1.31;85.56
62124;BME280;48110;47.532;19.078;2024-01-16T07:49:54;99780.28;;;1.43;84.11
62124;BME280;48110;47.532;19.078;2024-01-16T07:52:57;99800.31;;;1.53;83.18
62124;BME280;48110;47.532;19.078;2024-01-16T07:56:00;99799.31;;;1.65;82.69
62124;BME280;48110;47.532;19.078;2024-01-16T07:59:02;99798.94;;;1.70;82.71
62124;BME280;48110;47.532;19.078;2024-01-16T08:02:06;99805.25;;;1.67;82.27
62124;BME280;48110;47.532;19.078;2024-01-16T08:05:09;99811.56;;;1.65;82.48
62124;BME280;48110;47.532;19.078;2024-01-16T08:08:12;99819.53;;;1.63;81.56
62124;BME280;48110;47.532;19.078;2024-01-16T08:11:15;99824.41;;;1.68;81.91
62124;BME280;48110;47.532;19.078;2024-01-16T08:14:18;99832.81;;;1.71;81.43
62124;BME280;48110;47.532;19.078;2024-01-16T08:17:21;99834.84;;;1.68;81.00
62124;BME280;48110;47.532;19.078;2024-01-16T08:20:24;99811.31;;;1.68;80.61
62124;BME280;48110;47.532;19.078;2024-01-16T08:23:27;99837.78;;;1.74;80.67
62124;BME280;48110;47.532;19.078;2024-01-16T08:26:29;99831.94;;;1.82;80.86
62124;BME280;48110;47.532;19.078;2024-01-16T08:29:32;99829.25;;;1.72;80.52
62124;BME280;48110;47.532;19.078;2024-01-16T08:32:35;99844.09;;;1.72;81.46
62124;BME280;48110;47.532;19.078;2024-01-16T08:35:39;99859.34;;;1.67;80.68
62124;BME280;48110;47.532;19.078;2024-01-16T08:38:42;99866.59;;;1.63;80.36
62124;BME280;48110;47.532;19.078;2024-01-16T08:41:45;99862.59;;;1.80;80.10
62124;BME280;48110;47.532;19.078;2024-01-16T08:44:48;99870.78;;;1.87;80.21
62124;BME280;48110;47.532;19.078;2024-01-16T08:47:51;99868.53;;;1.93;79.04
62124;BME280;48110;47.532;19.078;2024-01-16T08:50:54;99876.84;;;1.87;79.39
62124;BME280;48110;47.532;19.078;2024-01-16T08:53:58;99882.25;;;2.06;78.63
62124;BME280;48110;47.532;19.078;2024-01-16T08:57:00;99877.19;;;2.14;77.63
62124;BME280;48110;47.532;19.078;2024-01-16T09:00:07;99876.44;;;2.24;76.45
62124;BME280;48110;47.532;19.078;2024-01-16T09:03:11;99887.81;;;2.13;75.83
62124;BME280;48110;47.532;19.078;2024-01-16T09:06:14;99887.22;;;2.09;75.26
62124;BME280;48110;47.532;19.078;2024-01-16T09:09:17;99886.47;;;2.18;75.05
62124;BME280;48110;47.532;19.078;2024-01-16T09:12:20;99889.53;;;2.24;74.84
62124;BME280;48110;47.532;19.078;2024-01-16T09:15:23;99892.16;;;2.24;74.24
62124;BME280;48110;47.532;19.078;2024-01-16T09:18:26;99897.84;;;2.08;73.57
62124;BME280;48110;47.532;19.078;2024-01-16T09:21:29;99898.69;;;1.97;73.71
62124;BME280;48110;47.532;19.078;2024-01-16T09:24:32;99900.22;;;2.00;73.13
62124;BME280;48110;47.532;19.078;2024-01-16T09:27:35;99908.44;;;1.95;73.51
62124;BME280;48110;47.532;19.078;2024-01-16T09:30:38;99904.16;;;1.94;73.56
62124;BME280;48110;47.532;19.078;2024-01-16T09:33:40;99906.53;;;1.97;73.05
62124;BME280;48110;47.532;19.078;2024-01-16T09:36:43;99909.75;;;2.01;72.53
62124;BME280;48110;47.532;19.078;2024-01-16T09:39:46;99901.50;;;2.05;71.71
62124;BME280;48110;47.532;19.078;2024-01-16T09:42:49;99899.63;;;2.07;71.17
62124;BME280;48110;47.532;19.078;2024-01-16T09:45:54;99904.09;;;2.16;70.88
62124;BME280;48110;47.532;19.078;2024-01-16T09:49:01;99915.47;;;2.27;69.47
62124;BME280;48110;47.532;19.078;2024-01-16T09:52:05;99906.97;;;2.34;69.68
62124;BME280;48110;47.532;19.078;2024-01-16T09:55:08;99905.56;;;2.51;68.30
62124;BME280;48110;47.532;19.078;2024-01-16T09:58:12;99917.44;;;2.76;67.50
62124;BME280;48110;47.532;19.078;2024-01-16T10:01:17;99901.91;;;2.84;67.06
62124;BME280;48110;47.532;19.078;2024-01-16T10:04:21;99911.75;;;2.71;66.39
62124;BME280;48110;47.532;19.078;2024-01-16T10:07:25;99904.16;;;2.68;66.37
62124;BME280;48110;47.532;19.078;2024-01-16T10:10:30;99903.31;;;2.67;66.72
62124;BME280;48110;47.532;19.078;2024-01-16T10:13:48;99902.47;;;2.67;66.02
62124;BME280;48110;47.532;19.078;2024-01-16T10:17:04;99902.97;;;2.81;65.82
62124;BME280;48110;47.532;19.078;2024-01-16T10:20:32;99903.19;;;2.69;65.43
62124;BME280;48110;47.532;19.078;2024-01-16T10:23:36;99904.66;;;2.61;65.17
62124;BME280;48110;47.532;19.078;2024-01-16T10:26:41;99912.84;;;2.68;65.86
62124;BME280;48110;47.532;19.078;2024-01-16T10:29:57;99914.94;;;2.74;65.41
62124;BME280;48110;47.532;19.078;2024-01-16T10:33:13;99909.25;;;2.69;65.51
62124;BME280;48110;47.532;19.078;2024-01-16T10:36:17;99915.56;;;2.67;65.41
62124;BME280;48110;47.532;19.078;2024-01-16T10:39:23;99912.72;;;2.49;65.37
62124;BME280;48110;47.532;19.078;2024-01-16T10:42:39;99909.31;;;2.37;65.71
62124;BME280;48110;47.532;19.078;2024-01-16T10:45:42;99909.91;;;2.41;66.54
62124;BME280;48110;47.532;19.078;2024-01-16T10:49:02;99908.31;;;2.49;66.00
62124;BME280;48110;47.532;19.078;2024-01-16T10:52:09;99918.28;;;2.55;66.40
62124;BME280;48110;47.532;19.078;2024-01-16T10:55:22;99900.47;;;2.70;66.05
62124;BME280;48110;47.532;19.078;2024-01-16T10:58:26;99913.66;;;2.69;65.42
62124;BME280;48110;47.532;19.078;2024-01-16T11:01:31;99906.53;;;2.71;65.76
62124;BME280;48110;47.532;19.078;2024-01-16T11:04:35;99908.75;;;2.75;64.92
62124;BME280;48110;47.532;19.078;2024-01-16T11:07:41;99898.97;;;2.77;64.13
62124;BME280;48110;47.532;19.078;2024-01-16T11:10:45;99900.28;;;2.92;64.81
62124;BME280;48110;47.532;19.078;2024-01-16T11:13:50;99911.38;;;3.05;64.04
62124;BME280;48110;47.532;19.078;2024-01-16T11:16:55;99900.75;;;3.07;63.88
62124;BME280;48110;47.532;19.078;2024-01-16T11:19:59;99897.72;;;3.02;63.22
62124;BME280;48110;47.532;19.078;2024-01-16T11:23:22;99913.97;;;3.05;63.15
62124;BME280;48110;47.532;19.078;2024-01-16T11:26:33;99907.16;;;3.14;63.08
62124;BME280;48110;47.532;19.078;2024-01-16T11:29:36;99910.72;;;3.13;62.92
62124;BME280;48110;47.532;19.078;2024-01-16T11:32:41;99904.59;;;3.33;62.46
62124;BME280;48110;47.532;19.078;2024-01-16T11:35:44;99911.94;;;3.49;62.13
62124;BME280;48110;47.532;19.078;2024-01-16T11:38:47;99919.31;;;3.74;61.82
62124;BME280;48110;47.532;19.078;2024-01-16T11:44:56;99912.41;;;3.73;60.85
62124;BME280;48110;47.532;19.078;2024-01-16T11:48:16;99913.41;;;3.82;60.06
62124;BME280;48110;47.532;19.078;2024-01-16T11:51:24;99913.09;;;3.66;60.26
62124;BME280;48110;47.532;19.078;2024-01-16T11:54:27;99897.78;;;3.71;59.79
62124;BME280;48110;47.532;19.078;2024-01-16T11:57:43;99896.94;;;3.70;60.14
62124;BME280;48110;47.532;19.078;2024-01-16T12:00:50;99906.59;;;3.70;59.23
62124;BME280;48110;47.532;19.078;2024-01-16T12:04:03;99898.03;;;3.58;58.64
62124;BME280;48110;47.532;19.078;2024-01-16T12:07:07;99902.87;;;3.63;58.72
62124;BME280;48110;47.532;19.078;2024-01-16T12:10:11;99910.19;;;3.78;58.63
62124;BME280;48110;47.532;19.078;2024-01-16T12:13:14;99910.75;;;3.72;58.32
62124;BME280;48110;47.532;19.078;2024-01-16T12:16:19;99910.78;;;4.01;57.50
62124;BME280;48110;47.532;19.078;2024-01-16T12:19:21;99903.59;;;4.32;56.52
62124;BME280;48110;47.532;19.078;2024-01-16T12:22:25;99896.50;;;5.08;54.62
62124;BME280;48110;47.532;19.078;2024-01-16T12:25:30;99909.31;;;5.20;53.94
62124;BME280;48110;47.532;19.078;2024-01-16T12:28:53;99904.50;;;5.16;54.27
62124;BME280;48110;47.532;19.078;2024-01-16T12:32:19;99892.19;;;5.16;53.51
62124;BME280;48110;47.532;19.078;2024-01-16T12:35:24;99894.63;;;5.28;53.41
62124;BME280;48110;47.532;19.078;2024-01-16T12:38:27;99893.72;;;5.09;53.08
62124;BME280;48110;47.532;19.078;2024-01-16T12:41:37;99895.81;;;5.06;53.85
62124;BME280;48110;47.532;19.078;2024-01-16T12:44:44;99893.09;;;4.98;54.02
62124;BME280;48110;47.532;19.078;2024-01-16T12:47:53;99900.16;;;4.97;52.82
62124;BME280;48110;47.532;19.078;2024-01-16T12:51:03;99900.06;;;5.16;50.75
62124;BME280;48110;47.532;19.078;2024-01-16T12:54:14;99889.56;;;5.16;49.79
62124;BME280;48110;47.532;19.078;2024-01-16T12:57:19;99901.41;;;4.93;49.86
62124;BME280;48110;47.532;19.078;2024-01-16T13:00:26;99902.78;;;5.52;50.19
62124;BME280;48110;47.532;19.078;2024-01-16T13:03:28;99904.84;;;5.58;48.63
62124;BME280;48110;47.532;19.078;2024-01-16T13:06:33;99904.44;;;5.53;49.46
62124;BME280;48110;47.532;19.078;2024-01-16T13:09:36;99905.34;;;5.71;49.00
62124;BME280;48110;47.532;19.078;2024-01-16T13:12:39;99904.69;;;5.59;48.75
62124;BME280;48110;47.532;19.078;2024-01-16T13:15:46;99909.00;;;5.60;47.82
62124;BME280;48110;47.532;19.078;2024-01-16T13:19:00;99912.19;;;5.54;48.39
62124;BME280;48110;47.532;19.078;2024-01-16T13:22:03;99910.75;;;5.05;48.79
62124;BME280;48110;47.532;19.078;2024-01-16T13:25:07;99910.16;;;4.84;48.70
62124;BME280;48110;47.532;19.078;2024-01-16T13:28:14;99905.09;;;4.63;49.86
62124;BME280;48110;47.532;19.078;2024-01-16T13:31:17;99908.38;;;4.65;49.43
62124;BME280;48110;47.532;19.078;2024-01-16T13:34:20;99916.00;;;4.59;49.62
62124;BME280;48110;47.532;19.078;2024-01-16T13:37:27;99916.28;;;4.56;48.92
62124;BME280;48110;47.532;19.078;2024-01-16T13:40:30;99914.50;;;4.37;50.30
62124;BME280;48110;47.532;19.078;2024-01-16T13:43:33;99919.63;;;4.19;49.11
62124;BME280;48110;47.532;19.078;2024-01-16T13:46:36;99917.41;;;3.96;49.47
62124;BME280;48110;47.532;19.078;2024-01-16T13:49:58;99923.63;;;3.85;49.84
62124;BME280;48110;47.532;19.078;2024-01-16T13:53:01;99927.19;;;3.84;50.26
62124;BME280;48110;47.532;19.078;2024-01-16T13:56:05;99932.31;;;3.76;50.44
62124;BME280;48110;47.532;19.078;2024-01-16T13:59:08;99938.22;;;3.68;50.72
62124;BME280;48110;47.532;19.078;2024-01-16T14:02:10;99929.38;;;3.69;50.72
62124;BME280;48110;47.532;19.078;2024-01-16T14:05:16;99936.97;;;3.63;50.87
62124;BME280;48110;47.532;19.078;2024-01-16T14:08:20;99930.03;;;3.52;51.18
62124;BME280;48110;47.532;19.078;2024-01-16T14:11:24;99930.91;;;3.62;50.73
62124;BME280;48110;47.532;19.078;2024-01-16T14:14:26;99924.41;;;3.66;50.33
62124;BME280;48110;47.532;19.078;2024-01-16T14:17:30;99933.78;;;3.69;50.17
62124;BME280;48110;47.532;19.078;2024-01-16T14:20:33;99944.28;;;3.69;50.02
62124;BME280;48110;47.532;19.078;2024-01-16T14:23:36;99934.91;;;3.66;50.19
62124;BME280;48110;47.532;19.078;2024-01-16T14:26:42;99933.37;;;3.64;50.76
62124;BME280;48110;47.532;19.078;2024-01-16T14:29:47;99951.47;;;3.67;50.30
62124;BME280;48110;47.532;19.078;2024-01-16T14:32:49;99944.25;;;3.59;50.61
62124;BME280;48110;47.532;19.078;2024-01-16T14:35:52;99947.44;;;3.53;51.17
62124;BME280;48110;47.532;19.078;2024-01-16T14:38:55;99952.09;;;3.49;50.39
62124;BME280;48110;47.532;19.078;2024-01-16T14:41:58;99946.59;;;3.53;50.41
62124;BME280;48110;47.532;19.078;2024-01-16T14:45:01;99963.31;;;3.52;50.68
62124;BME280;48110;47.532;19.078;2024-01-16T14:48:04;99956.78;;;3.46;50.66
62124;BME280;48110;47.532;19.078;2024-01-16T14:51:07;99951.84;;;3.53;50.66
62124;BME280;48110;47.532;19.078;2024-01-16T14:54:10;99955.84;;;3.47;51.75
62124;BME280;48110;47.532;19.078;2024-01-16T14:57:13;99959.28;;;3.47;51.04
62124;BME280;48110;47.532;19.078;2024-01-16T15:00:17;99955.97;;;3.45;51.21
62124;BME280;48110;47.532;19.078;2024-01-16T15:03:25;99954.97;;;3.37;51.68
62124;BME280;48110;47.532;19.078;2024-01-16T15:06:28;99955.19;;;3.24;51.92
62124;BME280;48110;47.532;19.078;2024-01-16T15:09:31;99962.13;;;3.04;53.47
62124;BME280;48110;47.532;19.078;2024-01-16T15:12:41;99970.25;;;3.01;52.62
62124;BME280;48110;47.532;19.078;2024-01-16T15:15:43;99965.09;;;2.90;53.27
62124;BME280;48110;47.532;19.078;2024-01-16T15:18:47;99955.63;;;2.78;53.75
62124;BME280;48110;47.532;19.078;2024-01-16T15:21:49;99959.19;;;2.77;54.10
62124;BME280;48110;47.532;19.078;2024-01-16T15:24:53;99962.47;;;2.90;53.05
62124;BME280;48110;47.532;19.078;2024-01-16T15:27:56;99961.53;;;2.71;54.34
62124;BME280;48110;47.532;19.078;2024-01-16T15:31:00;99972.75;;;2.61;54.81
62124;BME280;48110;47.532;19.078;2024-01-16T15:34:10;99970.19;;;2.71;55.03
62124;BME280;48110;47.532;19.078;2024-01-16T15:37:18;99964.59;;;2.55;54.70
62124;BME280;48110;47.532;19.078;2024-01-16T15:40:21;99969.97;;;2.42;57.03
62124;BME280;48110;47.532;19.078;2024-01-16T15:43:25;99982.88;;;2.34;56.21
62124;BME280;48110;47.532;19.078;2024-01-16T15:46:28;99982.88;;;2.34;55.98
62124;BME280;48110;47.532;19.078;2024-01-16T15:49:31;99980.91;;;2.27;56.38
62124;BME280;48110;47.532;19.078;2024-01-16T15:52:34;99975.34;;;2.09;57.14
62124;BME280;48110;47.532;19.078;2024-01-16T15:55:37;99980.75;;;1.96;57.41
62124;BME280;48110;47.532;19.078;2024-01-16T15:58:40;99989.44;;;1.86;57.19
62124;BME280;48110;47.532;19.078;2024-01-16T16:01:43;99983.00;;;1.90;58.39
62124;BME280;48110;47.532;19.078;2024-01-16T16:04:46;99979.81;;;1.75;58.29
62124;BME280;48110;47.532;19.078;2024-01-16T16:07:49;99986.97;;;1.62;59.21
62124;BME280;48110;47.532;19.078;2024-01-16T16:10:52;99991.50;;;1.49;59.73
62124;BME280;48110;47.532;19.078;2024-01-16T16:13:55;100009.56;;;1.41;59.58
62124;BME280;48110;47.532;19.078;2024-01-16T16:16:58;100012.88;;;1.31;59.54